sensor_id;sensor_type;location;lat;lon;timestamp;P1;durP1;ratioP1;P2;durP2;ratioP2
59659;SDS011;45534;52.690;6.268;2022-11-12T00:00:23;13.93;;;8.40;;
59659;SDS011;45534;52.690;6.268;2022-11-12T00:02:49;11.35;;;7.00;;
59659;SDS011;45534;52.690;6.268;2022-11-12T00:05:15;16.52;;;7.32;;
59659;SDS011;45534;52.690;6.268;2022-11-12T00:07:40;10.45;;;7.28;;
59659;SDS011;45534;52.690;6.268;2022-11-12T00:10:06;9.90;;;7.10;;
59659;SDS011;45534;52.690;6.268;2022-11-12T00:12:32;13.18;;;7.10;;
59659;SDS011;45534;52.690;6.268;2022-11-12T00:14:58;12.82;;;6.35;;
59659;SDS011;45534;52.690;6.268;2022-11-12T00:17:24;14.30;;;7.75;;
59659;SDS011;45534;52.690;6.268;2022-11-12T00:19:49;13.80;;;8.70;;
59659;SDS011;45534;52.690;6.268;2022-11-12T00:22:15;10.23;;;6.82;;
59659;SDS011;45534;52.690;6.268;2022-11-12T00:24:41;11.02;;;6.68;;
59659;SDS011;45534;52.690;6.268;2022-11-12T00:27:06;9.95;;;8.38;;
59659;SDS011;45534;52.690;6.268;2022-11-12T00:29:32;15.13;;;8.55;;
59659;SDS011;45534;52.690;6.268;2022-11-12T00:31:58;13.23;;;7.32;;
59659;SDS011;45534;52.690;6.268;2022-11-12T00:34:23;11.90;;;6.85;;
59659;SDS011;45534;52.690;6.268;2022-11-12T00:36:49;8.38;;;5.72;;
59659;SDS011;45534;52.690;6.268;2022-11-12T00:39:14;15.70;;;7.32;;
59659;SDS011;45534;52.690;6.268;2022-11-12T00:41:40;11.90;;;6.20;;
59659;SDS011;45534;52.690;6.268;2022-11-12T00:44:06;12.32;;;6.45;;
59659;SDS011;45534;52.690;6.268;2022-11-12T00:46:31;12.25;;;7.40;;
59659;SDS011;45534;52.690;6.268;2022-11-12T00:48:57;12.95;;;8.60;;
59659;SDS011;45534;52.690;6.268;2022-11-12T00:51:23;9.18;;;5.70;;
59659;SDS011;45534;52.690;6.268;2022-11-12T00:53:49;10.75;;;7.57;;
59659;SDS011;45534;52.690;6.268;2022-11-12T00:56:15;19.55;;;6.63;;
59659;SDS011;45534;52.690;6.268;2022-11-12T00:58:40;12.50;;;10.27;;
59659;SDS011;45534;52.690;6.268;2022-11-12T01:01:07;22.35;;;7.38;;
59659;SDS011;45534;52.690;6.268;2022-11-12T01:03:38;8.93;;;6.28;;
59659;SDS011;45534;52.690;6.268;2022-11-12T01:06:09;12.18;;;6.68;;
59659;SDS011;45534;52.690;6.268;2022-11-12T01:11:06;9.65;;;6.55;;
59659;SDS011;45534;52.690;6.268;2022-11-12T01:13:40;12.15;;;6.05;;
59659;SDS011;45534;52.690;6.268;2022-11-12T01:16:08;12.55;;;5.63;;
59659;SDS011;45534;52.690;6.268;2022-11-12T01:18:36;16.33;;;6.10;;
59659;SDS011;45534;52.690;6.268;2022-11-12T01:21:03;11.50;;;6.95;;
59659;SDS011;45534;52.690;6.268;2022-11-12T01:23:34;10.52;;;6.63;;
59659;SDS011;45534;52.690;6.268;2022-11-12T01:26:06;12.80;;;6.88;;
59659;SDS011;45534;52.690;6.268;2022-11-12T01:28:34;15.90;;;6.75;;
59659;SDS011;45534;52.690;6.268;2022-11-12T01:33:41;10.88;;;6.88;;
59659;SDS011;45534;52.690;6.268;2022-11-12T01:36:07;12.40;;;7.55;;
59659;SDS011;45534;52.690;6.268;2022-11-12T01:38:34;12.70;;;8.23;;
59659;SDS011;45534;52.690;6.268;2022-11-12T01:41:01;10.73;;;7.20;;
59659;SDS011;45534;52.690;6.268;2022-11-12T01:43:28;12.13;;;6.85;;
59659;SDS011;45534;52.690;6.268;2022-11-12T01:45:54;11.85;;;7.53;;
59659;SDS011;45534;52.690;6.268;2022-11-12T01:48:25;14.13;;;7.80;;
59659;SDS011;45534;52.690;6.268;2022-11-12T01:50:53;11.00;;;6.65;;
59659;SDS011;45534;52.690;6.268;2022-11-12T01:53:21;11.30;;;7.32;;
59659;SDS011;45534;52.690;6.268;2022-11-12T01:55:49;10.23;;;6.03;;
59659;SDS011;45534;52.690;6.268;2022-11-12T01:58:17;13.10;;;7.88;;
59659;SDS011;45534;52.690;6.268;2022-11-12T02:00:46;12.00;;;9.02;;
59659;SDS011;45534;52.690;6.268;2022-11-12T02:03:14;11.60;;;6.63;;
59659;SDS011;45534;52.690;6.268;2022-11-12T02:05:43;9.63;;;6.23;;
59659;SDS011;45534;52.690;6.268;2022-11-12T02:08:12;9.15;;;4.72;;
59659;SDS011;45534;52.690;6.268;2022-11-12T02:10:38;9.95;;;5.22;;
59659;SDS011;45534;52.690;6.268;2022-11-12T02:13:04;16.58;;;7.03;;
59659;SDS011;45534;52.690;6.268;2022-11-12T02:15:49;10.50;;;5.78;;
59659;SDS011;45534;52.690;6.268;2022-11-12T02:18:15;12.77;;;6.88;;
59659;SDS011;45534;52.690;6.268;2022-11-12T02:20:41;11.15;;;6.55;;
59659;SDS011;45534;52.690;6.268;2022-11-12T02:23:07;9.57;;;6.95;;
59659;SDS011;45534;52.690;6.268;2022-11-12T02:25:34;9.73;;;7.70;;
59659;SDS011;45534;52.690;6.268;2022-11-12T02:28:00;12.85;;;7.22;;
59659;SDS011;45534;52.690;6.268;2022-11-12T02:30:34;13.85;;;9.05;;
59659;SDS011;45534;52.690;6.268;2022-11-12T02:33:00;14.65;;;8.68;;
59659;SDS011;45534;52.690;6.268;2022-11-12T02:35:26;13.48;;;9.32;;
59659;SDS011;45534;52.690;6.268;2022-11-12T02:37:51;14.85;;;8.75;;
59659;SDS011;45534;52.690;6.268;2022-11-12T02:40:17;17.98;;;9.20;;
59659;SDS011;45534;52.690;6.268;2022-11-12T02:42:43;15.35;;;8.55;;
59659;SDS011;45534;52.690;6.268;2022-11-12T02:45:09;12.70;;;7.95;;
59659;SDS011;45534;52.690;6.268;2022-11-12T02:47:35;9.50;;;6.47;;
59659;SDS011;45534;52.690;6.268;2022-11-12T02:50:01;3.45;;;3.13;;
59659;SDS011;45534;52.690;6.268;2022-11-12T02:52:27;8.38;;;4.78;;
59659;SDS011;45534;52.690;6.268;2022-11-12T02:54:52;8.25;;;5.60;;
59659;SDS011;45534;52.690;6.268;2022-11-12T02:57:18;10.38;;;7.43;;
59659;SDS011;45534;52.690;6.268;2022-11-12T02:59:44;8.35;;;6.50;;
59659;SDS011;45534;52.690;6.268;2022-11-12T03:02:09;10.13;;;7.28;;
59659;SDS011;45534;52.690;6.268;2022-11-12T03:04:35;11.65;;;7.78;;
59659;SDS011;45534;52.690;6.268;2022-11-12T03:07:01;15.40;;;7.93;;
59659;SDS011;45534;52.690;6.268;2022-11-12T03:09:26;12.77;;;7.63;;
59659;SDS011;45534;52.690;6.268;2022-11-12T03:11:52;13.10;;;8.05;;
59659;SDS011;45534;52.690;6.268;2022-11-12T03:14:18;15.45;;;9.82;;
59659;SDS011;45534;52.690;6.268;2022-11-12T03:16:43;15.15;;;8.00;;
59659;SDS011;45534;52.690;6.268;2022-11-12T03:19:09;14.02;;;7.72;;
59659;SDS011;45534;52.690;6.268;2022-11-12T03:21:35;12.30;;;9.77;;
59659;SDS011;45534;52.690;6.268;2022-11-12T03:24:00;13.95;;;6.97;;
59659;SDS011;45534;52.690;6.268;2022-11-12T03:26:26;10.05;;;6.50;;
59659;SDS011;45534;52.690;6.268;2022-11-12T03:28:52;16.58;;;9.57;;
59659;SDS011;45534;52.690;6.268;2022-11-12T03:31:18;13.65;;;8.93;;
59659;SDS011;45534;52.690;6.268;2022-11-12T03:33:44;20.65;;;7.80;;
59659;SDS011;45534;52.690;6.268;2022-11-12T03:36:10;11.60;;;3.95;;
59659;SDS011;45534;52.690;6.268;2022-11-12T03:38:36;16.45;;;4.65;;
59659;SDS011;45534;52.690;6.268;2022-11-12T03:41:02;9.82;;;3.88;;
59659;SDS011;45534;52.690;6.268;2022-11-12T03:43:27;8.45;;;5.78;;
59659;SDS011;45534;52.690;6.268;2022-11-12T03:45:53;10.73;;;6.80;;
59659;SDS011;45534;52.690;6.268;2022-11-12T03:48:19;11.00;;;6.90;;
59659;SDS011;45534;52.690;6.268;2022-11-12T03:50:44;10.30;;;6.50;;
59659;SDS011;45534;52.690;6.268;2022-11-12T03:53:10;9.10;;;7.05;;
59659;SDS011;45534;52.690;6.268;2022-11-12T03:55:36;22.95;;;7.65;;
59659;SDS011;45534;52.690;6.268;2022-11-12T03:58:02;14.13;;;7.57;;
59659;SDS011;45534;52.690;6.268;2022-11-12T04:00:27;15.23;;;7.68;;
59659;SDS011;45534;52.690;6.268;2022-11-12T04:02:54;13.95;;;8.43;;
59659;SDS011;45534;52.690;6.268;2022-11-12T04:05:20;12.32;;;7.25;;
59659;SDS011;45534;52.690;6.268;2022-11-12T04:08:12;11.35;;;7.07;;
59659;SDS011;45534;52.690;6.268;2022-11-12T04:11:00;15.23;;;9.65;;
59659;SDS011;45534;52.690;6.268;2022-11-12T04:13:37;16.15;;;9.40;;
59659;SDS011;45534;52.690;6.268;2022-11-12T04:18:55;12.07;;;7.43;;
59659;SDS011;45534;52.690;6.268;2022-11-12T04:21:42;11.93;;;6.32;;
59659;SDS011;45534;52.690;6.268;2022-11-12T04:27:11;3.30;;;3.05;;
59659;SDS011;45534;52.690;6.268;2022-11-12T04:29:47;3.65;;;2.63;;
59659;SDS011;45534;52.690;6.268;2022-11-12T04:32:32;16.25;;;7.28;;
59659;SDS011;45534;52.690;6.268;2022-11-12T04:35:00;8.77;;;5.60;;
59659;SDS011;45534;52.690;6.268;2022-11-12T04:37:28;12.60;;;6.90;;
59659;SDS011;45534;52.690;6.268;2022-11-12T04:40:20;18.02;;;8.38;;
59659;SDS011;45534;52.690;6.268;2022-11-12T04:43:09;9.32;;;6.22;;
59659;SDS011;45534;52.690;6.268;2022-11-12T04:45:55;12.07;;;6.85;;
59659;SDS011;45534;52.690;6.268;2022-11-12T04:48:21;10.68;;;7.75;;
59659;SDS011;45534;52.690;6.268;2022-11-12T04:50:58;10.15;;;6.68;;
59659;SDS011;45534;52.690;6.268;2022-11-12T04:53:48;11.40;;;6.47;;
59659;SDS011;45534;52.690;6.268;2022-11-12T04:56:14;11.32;;;5.50;;
59659;SDS011;45534;52.690;6.268;2022-11-12T04:58:40;76.15;;;8.18;;
59659;SDS011;45534;52.690;6.268;2022-11-12T05:01:05;15.27;;;5.85;;
59659;SDS011;45534;52.690;6.268;2022-11-12T05:03:31;19.15;;;5.28;;
59659;SDS011;45534;52.690;6.268;2022-11-12T05:06:00;9.30;;;5.10;;
59659;SDS011;45534;52.690;6.268;2022-11-12T05:08:27;18.65;;;7.40;;
59659;SDS011;45534;52.690;6.268;2022-11-12T05:10:52;27.75;;;7.53;;
59659;SDS011;45534;52.690;6.268;2022-11-12T05:13:18;15.10;;;6.40;;
59659;SDS011;45534;52.690;6.268;2022-11-12T05:15:44;9.90;;;5.85;;
59659;SDS011;45534;52.690;6.268;2022-11-12T05:18:09;31.63;;;9.05;;
59659;SDS011;45534;52.690;6.268;2022-11-12T05:20:35;26.10;;;6.45;;
59659;SDS011;45534;52.690;6.268;2022-11-12T05:23:00;9.35;;;6.03;;
59659;SDS011;45534;52.690;6.268;2022-11-12T05:25:26;17.58;;;5.20;;
59659;SDS011;45534;52.690;6.268;2022-11-12T05:27:52;40.65;;;5.22;;
59659;SDS011;45534;52.690;6.268;2022-11-12T05:30:17;24.35;;;7.07;;
59659;SDS011;45534;52.690;6.268;2022-11-12T05:32:43;32.35;;;5.68;;
59659;SDS011;45534;52.690;6.268;2022-11-12T05:35:09;17.42;;;5.78;;
59659;SDS011;45534;52.690;6.268;2022-11-12T05:37:34;6.97;;;5.22;;
59659;SDS011;45534;52.690;6.268;2022-11-12T05:40:00;25.27;;;6.50;;
59659;SDS011;45534;52.690;6.268;2022-11-12T05:42:26;75.78;;;8.52;;
59659;SDS011;45534;52.690;6.268;2022-11-12T05:44:51;19.50;;;7.22;;
59659;SDS011;45534;52.690;6.268;2022-11-12T05:47:17;30.00;;;7.07;;
59659;SDS011;45534;52.690;6.268;2022-11-12T05:49:43;26.95;;;6.63;;
59659;SDS011;45534;52.690;6.268;2022-11-12T05:52:08;122.82;;;10.25;;
59659;SDS011;45534;52.690;6.268;2022-11-12T05:54:34;29.30;;;7.38;;
59659;SDS011;45534;52.690;6.268;2022-11-12T05:56:59;15.30;;;6.53;;
59659;SDS011;45534;52.690;6.268;2022-11-12T05:59:25;23.80;;;6.25;;
59659;SDS011;45534;52.690;6.268;2022-11-12T06:01:51;30.35;;;7.22;;
59659;SDS011;45534;52.690;6.268;2022-11-12T06:04:16;27.13;;;5.80;;
59659;SDS011;45534;52.690;6.268;2022-11-12T06:06:42;25.27;;;6.95;;
59659;SDS011;45534;52.690;6.268;2022-11-12T06:09:08;30.05;;;8.05;;
59659;SDS011;45534;52.690;6.268;2022-11-12T06:11:35;12.75;;;5.60;;
59659;SDS011;45534;52.690;6.268;2022-11-12T06:14:01;34.92;;;5.97;;
59659;SDS011;45534;52.690;6.268;2022-11-12T06:16:27;8.38;;;5.78;;
59659;SDS011;45534;52.690;6.268;2022-11-12T06:18:53;13.93;;;6.78;;
59659;SDS011;45534;52.690;6.268;2022-11-12T06:21:19;35.47;;;7.05;;
59659;SDS011;45534;52.690;6.268;2022-11-12T06:23:48;13.40;;;8.45;;
59659;SDS011;45534;52.690;6.268;2022-11-12T06:26:16;21.27;;;6.22;;
59659;SDS011;45534;52.690;6.268;2022-11-12T06:28:43;25.90;;;7.03;;
59659;SDS011;45534;52.690;6.268;2022-11-12T06:31:10;7.40;;;4.90;;
59659;SDS011;45534;52.690;6.268;2022-11-12T06:33:36;16.15;;;6.50;;
59659;SDS011;45534;52.690;6.268;2022-11-12T06:36:03;15.20;;;6.70;;
59659;SDS011;45534;52.690;6.268;2022-11-12T06:38:30;18.85;;;7.00;;
59659;SDS011;45534;52.690;6.268;2022-11-12T06:40:57;13.23;;;5.50;;
59659;SDS011;45534;52.690;6.268;2022-11-12T06:43:23;78.75;;;7.78;;
59659;SDS011;45534;52.690;6.268;2022-11-12T06:45:50;32.92;;;6.53;;
59659;SDS011;45534;52.690;6.268;2022-11-12T06:48:15;17.00;;;6.47;;
59659;SDS011;45534;52.690;6.268;2022-11-12T06:50:41;21.73;;;6.65;;
59659;SDS011;45534;52.690;6.268;2022-11-12T06:53:07;46.10;;;8.02;;
59659;SDS011;45534;52.690;6.268;2022-11-12T06:55:32;15.48;;;6.28;;
59659;SDS011;45534;52.690;6.268;2022-11-12T06:57:58;9.05;;;5.30;;
59659;SDS011;45534;52.690;6.268;2022-11-12T07:00:24;8.40;;;5.88;;
59659;SDS011;45534;52.690;6.268;2022-11-12T07:02:50;7.50;;;5.13;;
59659;SDS011;45534;52.690;6.268;2022-11-12T07:05:15;8.18;;;5.43;;
59659;SDS011;45534;52.690;6.268;2022-11-12T07:07:41;7.95;;;5.50;;
59659;SDS011;45534;52.690;6.268;2022-11-12T07:10:07;5.95;;;4.15;;
59659;SDS011;45534;52.690;6.268;2022-11-12T07:12:33;19.63;;;7.30;;
59659;SDS011;45534;52.690;6.268;2022-11-12T07:14:58;15.70;;;5.38;;
59659;SDS011;45534;52.690;6.268;2022-11-12T07:17:24;5.80;;;4.18;;
59659;SDS011;45534;52.690;6.268;2022-11-12T07:19:50;5.97;;;4.65;;
59659;SDS011;45534;52.690;6.268;2022-11-12T07:22:15;47.03;;;6.05;;
59659;SDS011;45534;52.690;6.268;2022-11-12T07:24:41;6.43;;;3.58;;
59659;SDS011;45534;52.690;6.268;2022-11-12T07:27:07;5.30;;;3.75;;
59659;SDS011;45534;52.690;6.268;2022-11-12T07:29:32;19.17;;;5.85;;
59659;SDS011;45534;52.690;6.268;2022-11-12T07:31:58;12.80;;;3.55;;
59659;SDS011;45534;52.690;6.268;2022-11-12T07:34:24;6.75;;;4.07;;
59659;SDS011;45534;52.690;6.268;2022-11-12T07:36:50;80.25;;;7.65;;
59659;SDS011;45534;52.690;6.268;2022-11-12T07:39:16;12.15;;;5.97;;
59659;SDS011;45534;52.690;6.268;2022-11-12T07:41:42;18.13;;;7.53;;
59659;SDS011;45534;52.690;6.268;2022-11-12T07:44:08;66.03;;;8.75;;
59659;SDS011;45534;52.690;6.268;2022-11-12T07:46:34;28.42;;;5.97;;
59659;SDS011;45534;52.690;6.268;2022-11-12T07:49:00;9.23;;;5.38;;
59659;SDS011;45534;52.690;6.268;2022-11-12T07:51:27;26.02;;;6.63;;
59659;SDS011;45534;52.690;6.268;2022-11-12T07:53:54;14.73;;;5.10;;
59659;SDS011;45534;52.690;6.268;2022-11-12T07:56:22;25.38;;;5.85;;
59659;SDS011;45534;52.690;6.268;2022-11-12T07:58:49;7.72;;;5.63;;
59659;SDS011;45534;52.690;6.268;2022-11-12T08:01:28;7.80;;;5.68;;
59659;SDS011;45534;52.690;6.268;2022-11-12T08:03:57;8.57;;;5.90;;
59659;SDS011;45534;52.690;6.268;2022-11-12T08:06:23;11.05;;;6.35;;
59659;SDS011;45534;52.690;6.268;2022-11-12T08:08:53;7.35;;;5.85;;
59659;SDS011;45534;52.690;6.268;2022-11-12T08:11:19;13.48;;;4.82;;
59659;SDS011;45534;52.690;6.268;2022-11-12T08:13:45;5.75;;;4.57;;
59659;SDS011;45534;52.690;6.268;2022-11-12T08:16:11;6.88;;;5.90;;
59659;SDS011;45534;52.690;6.268;2022-11-12T08:18:36;8.52;;;5.13;;
59659;SDS011;45534;52.690;6.268;2022-11-12T08:21:03;8.60;;;5.53;;
59659;SDS011;45534;52.690;6.268;2022-11-12T08:23:30;7.90;;;5.50;;
59659;SDS011;45534;52.690;6.268;2022-11-12T08:25:57;5.68;;;4.18;;
59659;SDS011;45534;52.690;6.268;2022-11-12T08:28:23;8.80;;;5.78;;
59659;SDS011;45534;52.690;6.268;2022-11-12T08:30:49;8.57;;;5.35;;
59659;SDS011;45534;52.690;6.268;2022-11-12T08:33:15;8.75;;;5.40;;
59659;SDS011;45534;52.690;6.268;2022-11-12T08:35:40;6.88;;;4.63;;
59659;SDS011;45534;52.690;6.268;2022-11-12T08:38:06;7.72;;;4.03;;
59659;SDS011;45534;52.690;6.268;2022-11-12T08:40:35;8.65;;;5.65;;
59659;SDS011;45534;52.690;6.268;2022-11-12T08:43:10;6.63;;;4.65;;
59659;SDS011;45534;52.690;6.268;2022-11-12T08:45:36;10.25;;;6.10;;
59659;SDS011;45534;52.690;6.268;2022-11-12T08:48:08;9.70;;;6.00;;
59659;SDS011;45534;52.690;6.268;2022-11-12T08:50:37;6.82;;;4.72;;
59659;SDS011;45534;52.690;6.268;2022-11-12T08:53:05;11.93;;;6.90;;
59659;SDS011;45534;52.690;6.268;2022-11-12T08:55:32;10.23;;;5.65;;
59659;SDS011;45534;52.690;6.268;2022-11-12T08:57:59;10.32;;;6.60;;
59659;SDS011;45534;52.690;6.268;2022-11-12T09:00:28;10.23;;;7.05;;
59659;SDS011;45534;52.690;6.268;2022-11-12T09:02:58;12.38;;;8.18;;
59659;SDS011;45534;52.690;6.268;2022-11-12T09:05:24;8.75;;;6.78;;
59659;SDS011;45534;52.690;6.268;2022-11-12T09:08:00;9.77;;;6.88;;
59659;SDS011;45534;52.690;6.268;2022-11-12T09:10:32;14.20;;;8.13;;
59659;SDS011;45534;52.690;6.268;2022-11-12T09:12:59;11.27;;;6.35;;
59659;SDS011;45534;52.690;6.268;2022-11-12T09:15:25;15.55;;;9.05;;
59659;SDS011;45534;52.690;6.268;2022-11-12T09:17:54;9.90;;;7.30;;
59659;SDS011;45534;52.690;6.268;2022-11-12T09:20:21;11.43;;;8.13;;
59659;SDS011;45534;52.690;6.268;2022-11-12T09:22:47;17.10;;;9.75;;
59659;SDS011;45534;52.690;6.268;2022-11-12T09:25:13;13.18;;;8.20;;
59659;SDS011;45534;52.690;6.268;2022-11-12T09:27:39;10.68;;;8.27;;
59659;SDS011;45534;52.690;6.268;2022-11-12T09:30:05;14.38;;;8.40;;
59659;SDS011;45534;52.690;6.268;2022-11-12T09:32:31;14.43;;;8.70;;
59659;SDS011;45534;52.690;6.268;2022-11-12T09:34:57;14.65;;;8.43;;
59659;SDS011;45534;52.690;6.268;2022-11-12T09:37:22;16.92;;;10.90;;
59659;SDS011;45534;52.690;6.268;2022-11-12T09:39:48;16.83;;;9.05;;
59659;SDS011;45534;52.690;6.268;2022-11-12T09:42:15;10.88;;;8.13;;
59659;SDS011;45534;52.690;6.268;2022-11-12T09:44:45;12.07;;;7.55;;
59659;SDS011;45534;52.690;6.268;2022-11-12T09:47:26;14.75;;;9.10;;
59659;SDS011;45534;52.690;6.268;2022-11-12T09:52:46;18.45;;;9.07;;
59659;SDS011;45534;52.690;6.268;2022-11-12T09:55:20;14.23;;;9.75;;
59659;SDS011;45534;52.690;6.268;2022-11-12T09:57:53;11.88;;;8.52;;
59659;SDS011;45534;52.690;6.268;2022-11-12T10:00:19;17.58;;;9.45;;
59659;SDS011;45534;52.690;6.268;2022-11-12T10:08:05;16.17;;;11.13;;
59659;SDS011;45534;52.690;6.268;2022-11-12T10:10:48;17.15;;;10.57;;
59659;SDS011;45534;52.690;6.268;2022-11-12T10:24:34;16.70;;;10.25;;
59659;SDS011;45534;52.690;6.268;2022-11-12T10:27:11;25.98;;;10.63;;
59659;SDS011;45534;52.690;6.268;2022-11-12T10:32:25;21.10;;;10.77;;
59659;SDS011;45534;52.690;6.268;2022-11-12T10:34:50;14.63;;;8.88;;
59659;SDS011;45534;52.690;6.268;2022-11-12T10:37:21;18.63;;;11.63;;
59659;SDS011;45534;52.690;6.268;2022-11-12T10:39:51;14.77;;;8.82;;
59659;SDS011;45534;52.690;6.268;2022-11-12T10:42:18;18.63;;;9.95;;
59659;SDS011;45534;52.690;6.268;2022-11-12T10:44:46;14.20;;;9.63;;
59659;SDS011;45534;52.690;6.268;2022-11-12T10:52:35;18.85;;;9.05;;
59659;SDS011;45534;52.690;6.268;2022-11-12T10:55:14;37.30;;;10.95;;
59659;SDS011;45534;52.690;6.268;2022-11-12T10:57:42;12.18;;;7.40;;
59659;SDS011;45534;52.690;6.268;2022-11-12T11:02:37;20.63;;;9.95;;
59659;SDS011;45534;52.690;6.268;2022-11-12T11:05:32;12.15;;;9.95;;
59659;SDS011;45534;52.690;6.268;2022-11-12T11:07:58;13.32;;;8.88;;
59659;SDS011;45534;52.690;6.268;2022-11-12T11:10:27;13.30;;;7.68;;
59659;SDS011;45534;52.690;6.268;2022-11-12T11:15:58;14.25;;;8.93;;
59659;SDS011;45534;52.690;6.268;2022-11-12T11:18:32;10.77;;;6.77;;
59659;SDS011;45534;52.690;6.268;2022-11-12T11:27:17;9.85;;;7.38;;
59659;SDS011;45534;52.690;6.268;2022-11-12T11:32:36;10.85;;;6.07;;
59659;SDS011;45534;52.690;6.268;2022-11-12T11:38:22;13.27;;;6.95;;
59659;SDS011;45534;52.690;6.268;2022-11-12T11:44:27;9.43;;;5.65;;
59659;SDS011;45534;52.690;6.268;2022-11-12T11:47:27;10.30;;;7.50;;
59659;SDS011;45534;52.690;6.268;2022-11-12T11:52:29;13.00;;;7.57;;
59659;SDS011;45534;52.690;6.268;2022-11-12T11:57:58;14.88;;;13.00;;
59659;SDS011;45534;52.690;6.268;2022-11-12T12:00:41;9.82;;;6.35;;
59659;SDS011;45534;52.690;6.268;2022-11-12T12:03:16;11.20;;;6.35;;
59659;SDS011;45534;52.690;6.268;2022-11-12T12:20:21;13.98;;;10.95;;
59659;SDS011;45534;52.690;6.268;2022-11-12T12:23:19;16.10;;;12.82;;
59659;SDS011;45534;52.690;6.268;2022-11-12T12:25:49;16.23;;;10.90;;
59659;SDS011;45534;52.690;6.268;2022-11-12T12:28:19;24.30;;;12.18;;
59659;SDS011;45534;52.690;6.268;2022-11-12T12:30:48;13.75;;;11.10;;
59659;SDS011;45534;52.690;6.268;2022-11-12T12:33:26;15.30;;;10.98;;
59659;SDS011;45534;52.690;6.268;2022-11-12T12:36:16;14.50;;;11.30;;
59659;SDS011;45534;52.690;6.268;2022-11-12T12:38:54;14.60;;;11.30;;
59659;SDS011;45534;52.690;6.268;2022-11-12T12:41:38;27.23;;;11.70;;
59659;SDS011;45534;52.690;6.268;2022-11-12T12:44:19;13.07;;;11.68;;
59659;SDS011;45534;52.690;6.268;2022-11-12T12:46:53;13.38;;;11.10;;
59659;SDS011;45534;52.690;6.268;2022-11-12T12:49:26;12.70;;;10.82;;
59659;SDS011;45534;52.690;6.268;2022-11-12T12:51:56;205.43;;;31.38;;
59659;SDS011;45534;52.690;6.268;2022-11-12T12:57:03;12.77;;;10.52;;
59659;SDS011;45534;52.690;6.268;2022-11-12T12:59:29;10.63;;;9.50;;
59659;SDS011;45534;52.690;6.268;2022-11-12T13:01:57;14.10;;;11.10;;
59659;SDS011;45534;52.690;6.268;2022-11-12T13:15:47;13.63;;;11.18;;
59659;SDS011;45534;52.690;6.268;2022-11-12T13:21:16;12.85;;;10.35;;
59659;SDS011;45534;52.690;6.268;2022-11-12T13:23:45;13.57;;;10.98;;
59659;SDS011;45534;52.690;6.268;2022-11-12T13:31:46;13.70;;;10.82;;
59659;SDS011;45534;52.690;6.268;2022-11-12T13:34:21;12.85;;;11.38;;
59659;SDS011;45534;52.690;6.268;2022-11-12T13:36:55;12.57;;;10.98;;
59659;SDS011;45534;52.690;6.268;2022-11-12T13:39:25;12.88;;;11.27;;
59659;SDS011;45534;52.690;6.268;2022-11-12T13:41:58;12.50;;;10.98;;
59659;SDS011;45534;52.690;6.268;2022-11-12T13:44:42;11.90;;;9.57;;
59659;SDS011;45534;52.690;6.268;2022-11-12T13:47:16;13.30;;;11.57;;
59659;SDS011;45534;52.690;6.268;2022-11-12T13:49:45;12.63;;;10.90;;
59659;SDS011;45534;52.690;6.268;2022-11-12T13:52:13;12.75;;;10.50;;
59659;SDS011;45534;52.690;6.268;2022-11-12T13:54:40;16.17;;;12.13;;
59659;SDS011;45534;52.690;6.268;2022-11-12T13:57:39;14.15;;;10.52;;
59659;SDS011;45534;52.690;6.268;2022-11-12T14:02:32;13.43;;;10.40;;
59659;SDS011;45534;52.690;6.268;2022-11-12T14:05:00;13.93;;;11.73;;
59659;SDS011;45534;52.690;6.268;2022-11-12T14:18:26;12.55;;;11.07;;
59659;SDS011;45534;52.690;6.268;2022-11-12T14:21:11;14.02;;;11.25;;
59659;SDS011;45534;52.690;6.268;2022-11-12T14:23:41;13.05;;;11.65;;
59659;SDS011;45534;52.690;6.268;2022-11-12T14:26:10;13.57;;;12.18;;
59659;SDS011;45534;52.690;6.268;2022-11-12T14:28:37;14.13;;;12.63;;
59659;SDS011;45534;52.690;6.268;2022-11-12T14:31:11;14.05;;;12.65;;
59659;SDS011;45534;52.690;6.268;2022-11-12T14:33:38;13.15;;;11.75;;
59659;SDS011;45534;52.690;6.268;2022-11-12T14:36:11;15.75;;;14.05;;
59659;SDS011;45534;52.690;6.268;2022-11-12T14:38:42;20.42;;;14.05;;
59659;SDS011;45534;52.690;6.268;2022-11-12T14:41:21;15.68;;;14.07;;
59659;SDS011;45534;52.690;6.268;2022-11-12T14:43:50;17.15;;;15.45;;
59659;SDS011;45534;52.690;6.268;2022-11-12T14:49:11;18.63;;;16.83;;
59659;SDS011;45534;52.690;6.268;2022-11-12T14:51:35;19.17;;;16.83;;
59659;SDS011;45534;52.690;6.268;2022-11-12T14:54:09;17.83;;;16.02;;
59659;SDS011;45534;52.690;6.268;2022-11-12T14:56:41;22.33;;;20.10;;
59659;SDS011;45534;52.690;6.268;2022-11-12T14:59:12;23.55;;;21.17;;
59659;SDS011;45534;52.690;6.268;2022-11-12T15:01:40;22.80;;;20.48;;
59659;SDS011;45534;52.690;6.268;2022-11-12T15:04:35;22.00;;;19.90;;
59659;SDS011;45534;52.690;6.268;2022-11-12T15:07:04;22.02;;;19.85;;
59659;SDS011;45534;52.690;6.268;2022-11-12T15:09:35;21.00;;;19.10;;
59659;SDS011;45534;52.690;6.268;2022-11-12T15:12:06;16.15;;;9.88;;
59659;SDS011;45534;52.690;6.268;2022-11-12T15:14:35;14.98;;;9.98;;
59659;SDS011;45534;52.690;6.268;2022-11-12T15:17:01;14.77;;;9.07;;
59659;SDS011;45534;52.690;6.268;2022-11-12T15:19:29;11.32;;;9.32;;
59659;SDS011;45534;52.690;6.268;2022-11-12T15:21:59;10.05;;;8.18;;
59659;SDS011;45534;52.690;6.268;2022-11-12T15:24:30;9.95;;;7.85;;
59659;SDS011;45534;52.690;6.268;2022-11-12T15:27:01;20.52;;;18.42;;
59659;SDS011;45534;52.690;6.268;2022-11-12T15:30:14;15.05;;;10.10;;
59659;SDS011;45534;52.690;6.268;2022-11-12T15:32:42;12.55;;;9.07;;
59659;SDS011;45534;52.690;6.268;2022-11-12T15:37:49;12.50;;;11.15;;
59659;SDS011;45534;52.690;6.268;2022-11-12T15:40:16;17.92;;;11.57;;
59659;SDS011;45534;52.690;6.268;2022-11-12T15:42:44;13.93;;;10.48;;
59659;SDS011;45534;52.690;6.268;2022-11-12T15:47:39;21.02;;;10.13;;
59659;SDS011;45534;52.690;6.268;2022-11-12T15:50:25;17.02;;;11.55;;
59659;SDS011;45534;52.690;6.268;2022-11-12T15:52:51;14.90;;;10.73;;
59659;SDS011;45534;52.690;6.268;2022-11-12T15:55:16;25.55;;;13.18;;
59659;SDS011;45534;52.690;6.268;2022-11-12T15:57:44;15.60;;;10.35;;
59659;SDS011;45534;52.690;6.268;2022-11-12T16:00:19;15.05;;;10.63;;
59659;SDS011;45534;52.690;6.268;2022-11-12T16:05:45;11.85;;;9.90;;
59659;SDS011;45534;52.690;6.268;2022-11-12T16:08:11;15.77;;;10.90;;
59659;SDS011;45534;52.690;6.268;2022-11-12T16:10:37;14.38;;;8.52;;
59659;SDS011;45534;52.690;6.268;2022-11-12T16:13:04;14.32;;;10.95;;
59659;SDS011;45534;52.690;6.268;2022-11-12T16:15:31;13.35;;;9.45;;
59659;SDS011;45534;52.690;6.268;2022-11-12T16:17:57;17.65;;;11.13;;
59659;SDS011;45534;52.690;6.268;2022-11-12T16:20:27;16.95;;;11.63;;
59659;SDS011;45534;52.690;6.268;2022-11-12T16:22:55;16.80;;;11.82;;
59659;SDS011;45534;52.690;6.268;2022-11-12T16:25:21;17.92;;;9.60;;
59659;SDS011;45534;52.690;6.268;2022-11-12T16:27:52;15.68;;;11.38;;
59659;SDS011;45534;52.690;6.268;2022-11-12T16:30:22;12.77;;;11.43;;
59659;SDS011;45534;52.690;6.268;2022-11-12T16:32:49;15.93;;;12.57;;
59659;SDS011;45534;52.690;6.268;2022-11-12T16:35:15;17.00;;;9.80;;
59659;SDS011;45534;52.690;6.268;2022-11-12T16:37:42;15.75;;;9.27;;
59659;SDS011;45534;52.690;6.268;2022-11-12T16:40:11;15.68;;;9.88;;
59659;SDS011;45534;52.690;6.268;2022-11-12T16:42:40;13.63;;;10.70;;
59659;SDS011;45534;52.690;6.268;2022-11-12T16:45:12;12.63;;;10.73;;
59659;SDS011;45534;52.690;6.268;2022-11-12T16:47:43;14.65;;;11.60;;
59659;SDS011;45534;52.690;6.268;2022-11-12T16:50:15;17.37;;;11.87;;